sensor_id;sensor_type;location;lat;lon;timestamp;temperature;humidity
20416;DHT22;10367;52.202;5.996;2023-03-05T00:02:02;3.90;99.90
20416;DHT22;10367;52.202;5.996;2023-03-05T00:04:50;3.80;99.90
20416;DHT22;10367;52.202;5.996;2023-03-05T00:07:30;3.80;99.90
20416;DHT22;10367;52.202;5.996;2023-03-05T00:10:16;3.70;99.90
20416;DHT22;10367;52.202;5.996;2023-03-05T00:12:45;3.70;99.90
20416;DHT22;10367;52.202;5.996;2023-03-05T00:15:29;3.70;99.90
20416;DHT22;10367;52.202;5.996;2023-03-05T00:18:09;3.70;99.90
20416;DHT22;10367;52.202;5.996;2023-03-05T00:20:47;3.60;99.90
20416;DHT22;10367;52.202;5.996;2023-03-05T00:23:19;3.60;99.90
20416;DHT22;10367;52.202;5.996;2023-03-05T00:25:54;3.70;99.90
20416;DHT22;10367;52.202;5.996;2023-03-05T00:28:26;3.60;99.90
20416;DHT22;10367;52.202;5.996;2023-03-05T00:30:59;3.70;99.90
20416;DHT22;10367;52.202;5.996;2023-03-05T00:33:36;3.70;99.90
20416;DHT22;10367;52.202;5.996;2023-03-05T00:36:09;3.70;99.90
20416;DHT22;10367;52.202;5.996;2023-03-05T00:38:44;3.70;99.90
20416;DHT22;10367;52.202;5.996;2023-03-05T00:41:14;3.70;99.90
20416;DHT22;10367;52.202;5.996;2023-03-05T00:43:57;3.60;99.90
20416;DHT22;10367;52.202;5.996;2023-03-05T00:46:33;3.60;99.90
20416;DHT22;10367;52.202;5.996;2023-03-05T00:49:05;3.60;99.90
20416;DHT22;10367;52.202;5.996;2023-03-05T00:51:52;3.60;99.90
20416;DHT22;10367;52.202;5.996;2023-03-05T00:54:30;3.60;99.90
20416;DHT22;10367;52.202;5.996;2023-03-05T00:56:59;3.60;99.90
20416;DHT22;10367;52.202;5.996;2023-03-05T00:59:31;3.60;99.90
20416;DHT22;10367;52.202;5.996;2023-03-05T01:02:08;3.60;99.90
20416;DHT22;10367;52.202;5.996;2023-03-05T01:04:43;3.60;99.90
20416;DHT22;10367;52.202;5.996;2023-03-05T01:07:31;3.50;99.90
20416;DHT22;10367;52.202;5.996;2023-03-05T01:10:03;3.50;99.90
20416;DHT22;10367;52.202;5.996;2023-03-05T01:12:41;3.60;99.90
20416;DHT22;10367;52.202;5.996;2023-03-05T01:15:14;3.60;99.90
20416;DHT22;10367;52.202;5.996;2023-03-05T01:17:47;3.50;99.90
20416;DHT22;10367;52.202;5.996;2023-03-05T01:20:22;3.60;99.90
20416;DHT22;10367;52.202;5.996;2023-03-05T01:22:54;3.50;99.90
20416;DHT22;10367;52.202;5.996;2023-03-05T01:25:27;3.60;99.90
20416;DHT22;10367;52.202;5.996;2023-03-05T01:28:04;3.50;99.90
20416;DHT22;10367;52.202;5.996;2023-03-05T01:30:35;3.50;99.90
20416;DHT22;10367;52.202;5.996;2023-03-05T01:33:08;3.60;99.90
20416;DHT22;10367;52.202;5.996;2023-03-05T01:35:41;3.60;99.90
20416;DHT22;10367;52.202;5.996;2023-03-05T01:38:14;3.60;99.90
20416;DHT22;10367;52.202;5.996;2023-03-05T01:40:52;3.60;99.90
20416;DHT22;10367;52.202;5.996;2023-03-05T01:43:33;3.60;99.90
20416;DHT22;10367;52.202;5.996;2023-03-05T01:46:29;3.60;99.90
20416;DHT22;10367;52.202;5.996;2023-03-05T01:49:23;3.60;99.90
20416;DHT22;10367;52.202;5.996;2023-03-05T01:52:00;3.50;99.90
20416;DHT22;10367;52.202;5.996;2023-03-05T01:54:36;3.60;99.90
20416;DHT22;10367;52.202;5.996;2023-03-05T01:57:15;3.50;99.90
20416;DHT22;10367;52.202;5.996;2023-03-05T01:59:47;3.50;99.90
20416;DHT22;10367;52.202;5.996;2023-03-05T02:02:24;3.50;99.90
20416;DHT22;10367;52.202;5.996;2023-03-05T02:04:59;3.50;99.90
20416;DHT22;10367;52.202;5.996;2023-03-05T02:07:35;3.50;99.90
20416;DHT22;10367;52.202;5.996;2023-03-05T02:10:20;3.40;99.90
20416;DHT22;10367;52.202;5.996;2023-03-05T02:12:58;3.50;99.90
20416;DHT22;10367;52.202;5.996;2023-03-05T02:15:28;3.40;99.90
20416;DHT22;10367;52.202;5.996;2023-03-05T02:18:06;3.40;99.90
20416;DHT22;10367;52.202;5.996;2023-03-05T02:20:46;3.50;99.90
20416;DHT22;10367;52.202;5.996;2023-03-05T02:23:32;3.40;99.90
20416;DHT22;10367;52.202;5.996;2023-03-05T02:26:10;3.50;99.90
20416;DHT22;10367;52.202;5.996;2023-03-05T02:28:44;3.40;99.90
20416;DHT22;10367;52.202;5.996;2023-03-05T02:31:23;3.40;99.90
20416;DHT22;10367;52.202;5.996;2023-03-05T02:33:56;3.40;99.90
20416;DHT22;10367;52.202;5.996;2023-03-05T02:36:28;3.40;99.90
20416;DHT22;10367;52.202;5.996;2023-03-05T02:39:05;3.40;99.90
20416;DHT22;10367;52.202;5.996;2023-03-05T02:41:36;3.30;99.90
20416;DHT22;10367;52.202;5.996;2023-03-05T02:44:08;3.40;99.90
20416;DHT22;10367;52.202;5.996;2023-03-05T02:46:40;3.30;99.90
20416;DHT22;10367;52.202;5.996;2023-03-05T02:49:11;3.30;99.90
20416;DHT22;10367;52.202;5.996;2023-03-05T02:51:40;3.30;99.90
20416;DHT22;10367;52.202;5.996;2023-03-05T02:54:25;3.20;99.90
20416;DHT22;10367;52.202;5.996;2023-03-05T02:56:54;3.30;99.90
20416;DHT22;10367;52.202;5.996;2023-03-05T02:59:27;3.30;99.90
20416;DHT22;10367;52.202;5.996;2023-03-05T03:01:58;3.30;99.90
20416;DHT22;10367;52.202;5.996;2023-03-05T03:04:28;3.40;99.90
20416;DHT22;10367;52.202;5.996;2023-03-05T03:07:06;3.40;99.90
20416;DHT22;10367;52.202;5.996;2023-03-05T03:09:46;3.40;99.90
20416;DHT22;10367;52.202;5.996;2023-03-05T03:12:26;3.40;99.90
20416;DHT22;10367;52.202;5.996;2023-03-05T03:15:01;3.40;99.90
20416;DHT22;10367;52.202;5.996;2023-03-05T03:17:36;3.40;99.90
20416;DHT22;10367;52.202;5.996;2023-03-05T03:20:14;3.40;99.90
20416;DHT22;10367;52.202;5.996;2023-03-05T03:22:46;3.40;99.90
20416;DHT22;10367;52.202;5.996;2023-03-05T03:25:22;3.40;99.90
20416;DHT22;10367;52.202;5.996;2023-03-05T03:27:53;3.40;99.90
20416;DHT22;10367;52.202;5.996;2023-03-05T03:30:23;3.40;99.90
20416;DHT22;10367;52.202;5.996;2023-03-05T03:32:52;3.40;99.90
20416;DHT22;10367;52.202;5.996;2023-03-05T03:35:24;3.40;99.90
20416;DHT22;10367;52.202;5.996;2023-03-05T03:38:00;3.40;99.90
20416;DHT22;10367;52.202;5.996;2023-03-05T03:40:34;3.30;99.90
20416;DHT22;10367;52.202;5.996;2023-03-05T03:43:04;3.40;99.90
20416;DHT22;10367;52.202;5.996;2023-03-05T03:45:34;3.30;99.90
20416;DHT22;10367;52.202;5.996;2023-03-05T03:48:10;3.30;99.90
20416;DHT22;10367;52.202;5.996;2023-03-05T03:50:42;3.30;99.90
20416;DHT22;10367;52.202;5.996;2023-03-05T03:53:13;3.30;99.90
20416;DHT22;10367;52.202;5.996;2023-03-05T03:55:45;3.30;99.90
20416;DHT22;10367;52.202;5.996;2023-03-05T03:58:15;3.30;99.90
20416;DHT22;10367;52.202;5.996;2023-03-05T04:00:46;3.30;99.90
20416;DHT22;10367;52.202;5.996;2023-03-05T04:03:29;3.30;99.90
20416;DHT22;10367;52.202;5.996;2023-03-05T04:06:13;3.30;99.90
20416;DHT22;10367;52.202;5.996;2023-03-05T04:08:48;3.30;99.90
20416;DHT22;10367;52.202;5.996;2023-03-05T04:11:22;3.30;99.90
20416;DHT22;10367;52.202;5.996;2023-03-05T04:14:05;3.30;99.90
20416;DHT22;10367;52.202;5.996;2023-03-05T04:16:58;3.30;99.90
20416;DHT22;10367;52.202;5.996;2023-03-05T04:19:39;3.20;99.90
20416;DHT22;10367;52.202;5.996;2023-03-05T04:22:21;3.30;99.90
20416;DHT22;10367;52.202;5.996;2023-03-05T04:25:16;3.30;99.90
20416;DHT22;10367;52.202;5.996;2023-03-05T04:27:52;3.30;99.90
20416;DHT22;10367;52.202;5.996;2023-03-05T04:30:30;3.30;99.90
20416;DHT22;10367;52.202;5.996;2023-03-05T04:33:08;3.30;99.90
20416;DHT22;10367;52.202;5.996;2023-03-05T04:35:41;3.20;99.90
20416;DHT22;10367;52.202;5.996;2023-03-05T04:38:29;3.20;99.90
20416;DHT22;10367;52.202;5.996;2023-03-05T04:41:10;3.20;99.90
20416;DHT22;10367;52.202;5.996;2023-03-05T04:43:45;3.20;99.90
20416;DHT22;10367;52.202;5.996;2023-03-05T04:46:24;3.10;99.90
20416;DHT22;10367;52.202;5.996;2023-03-05T04:48:55;3.10;99.90
20416;DHT22;10367;52.202;5.996;2023-03-05T04:51:38;3.10;99.90
20416;DHT22;10367;52.202;5.996;2023-03-05T04:54:10;3.10;99.90
20416;DHT22;10367;52.202;5.996;2023-03-05T04:56:41;3.10;99.90
20416;DHT22;10367;52.202;5.996;2023-03-05T04:59:25;3.20;99.90
20416;DHT22;10367;52.202;5.996;2023-03-05T05:01:59;3.20;99.90
20416;DHT22;10367;52.202;5.996;2023-03-05T05:04:37;3.10;99.90
20416;DHT22;10367;52.202;5.996;2023-03-05T05:07:14;3.10;99.90
20416;DHT22;10367;52.202;5.996;2023-03-05T05:09:51;3.10;99.90
20416;DHT22;10367;52.202;5.996;2023-03-05T05:12:30;3.10;99.90
20416;DHT22;10367;52.202;5.996;2023-03-05T05:15:23;3.10;99.90
20416;DHT22;10367;52.202;5.996;2023-03-05T05:17:58;3.00;99.90
20416;DHT22;10367;52.202;5.996;2023-03-05T05:20:37;3.00;99.90
20416;DHT22;10367;52.202;5.996;2023-03-05T05:23:20;3.10;99.90
20416;DHT22;10367;52.202;5.996;2023-03-05T05:25:57;3.10;99.90
20416;DHT22;10367;52.202;5.996;2023-03-05T05:28:39;3.10;99.90
20416;DHT22;10367;52.202;5.996;2023-03-05T05:31:15;3.10;99.90
20416;DHT22;10367;52.202;5.996;2023-03-05T05:33:50;3.00;99.90
20416;DHT22;10367;52.202;5.996;2023-03-05T05:36:24;2.90;99.90
20416;DHT22;10367;52.202;5.996;2023-03-05T05:38:54;2.90;99.90
20416;DHT22;10367;52.202;5.996;2023-03-05T05:41:28;2.80;99.90
20416;DHT22;10367;52.202;5.996;2023-03-05T05:43:57;2.80;99.90
20416;DHT22;10367;52.202;5.996;2023-03-05T05:46:30;2.80;99.90
20416;DHT22;10367;52.202;5.996;2023-03-05T05:49:00;2.70;99.90
20416;DHT22;10367;52.202;5.996;2023-03-05T05:51:38;2.70;99.90
20416;DHT22;10367;52.202;5.996;2023-03-05T05:54:12;2.70;99.90
20416;DHT22;10367;52.202;5.996;2023-03-05T05:56:45;2.60;99.90
20416;DHT22;10367;52.202;5.996;2023-03-05T05:59:17;2.60;99.90
20416;DHT22;10367;52.202;5.996;2023-03-05T06:01:57;2.60;99.90
20416;DHT22;10367;52.202;5.996;2023-03-05T06:04:27;2.60;99.90
20416;DHT22;10367;52.202;5.996;2023-03-05T06:06:57;2.60;99.90
20416;DHT22;10367;52.202;5.996;2023-03-05T06:09:26;2.70;99.90
20416;DHT22;10367;52.202;5.996;2023-03-05T06:11:55;2.70;99.90
20416;DHT22;10367;52.202;5.996;2023-03-05T06:14:24;2.70;99.90
20416;DHT22;10367;52.202;5.996;2023-03-05T06:16:52;2.70;99.90
20416;DHT22;10367;52.202;5.996;2023-03-05T06:19:23;2.70;99.90
20416;DHT22;10367;52.202;5.996;2023-03-05T06:21:52;2.70;99.90
20416;DHT22;10367;52.202;5.996;2023-03-05T06:24:23;2.70;99.90
20416;DHT22;10367;52.202;5.996;2023-03-05T06:26:58;2.70;99.90
20416;DHT22;10367;52.202;5.996;2023-03-05T06:29:30;2.80;99.90
20416;DHT22;10367;52.202;5.996;2023-03-05T06:32:01;2.80;99.90
20416;DHT22;10367;52.202;5.996;2023-03-05T06:34:37;2.90;99.90
20416;DHT22;10367;52.202;5.996;2023-03-05T06:37:13;2.90;99.90
20416;DHT22;10367;52.202;5.996;2023-03-05T06:39:48;3.00;99.90
20416;DHT22;10367;52.202;5.996;2023-03-05T06:42:17;3.00;99.90
20416;DHT22;10367;52.202;5.996;2023-03-05T06:44:49;3.00;99.90
20416;DHT22;10367;52.202;5.996;2023-03-05T06:47:30;3.00;99.90
20416;DHT22;10367;52.202;5.996;2023-03-05T06:50:01;3.00;99.90
20416;DHT22;10367;52.202;5.996;2023-03-05T06:52:42;3.00;99.90
20416;DHT22;10367;52.202;5.996;2023-03-05T06:55:21;3.10;99.90
20416;DHT22;10367;52.202;5.996;2023-03-05T06:57:59;3.10;99.90
20416;DHT22;10367;52.202;5.996;2023-03-05T07:00:31;3.10;99.90
20416;DHT22;10367;52.202;5.996;2023-03-05T07:03:19;3.10;99.90
20416;DHT22;10367;52.202;5.996;2023-03-05T07:06:02;3.20;99.90
20416;DHT22;10367;52.202;5.996;2023-03-05T07:08:41;3.20;99.90
20416;DHT22;10367;52.202;5.996;2023-03-05T07:11:12;3.30;99.90
20416;DHT22;10367;52.202;5.996;2023-03-05T07:13:49;3.30;99.90
20416;DHT22;10367;52.202;5.996;2023-03-05T07:16:32;3.30;99.90
20416;DHT22;10367;52.202;5.996;2023-03-05T07:19:11;3.40;99.90
20416;DHT22;10367;52.202;5.996;2023-03-05T07:21:47;3.40;99.90
20416;DHT22;10367;52.202;5.996;2023-03-05T07:24:16;3.40;99.90
20416;DHT22;10367;52.202;5.996;2023-03-05T07:26:46;3.50;99.90
20416;DHT22;10367;52.202;5.996;2023-03-05T07:29:19;3.50;99.90
20416;DHT22;10367;52.202;5.996;2023-03-05T07:31:56;3.50;99.90
20416;DHT22;10367;52.202;5.996;2023-03-05T07:34:26;3.60;99.90
20416;DHT22;10367;52.202;5.996;2023-03-05T07:36:59;3.60;99.90
20416;DHT22;10367;52.202;5.996;2023-03-05T07:39:30;3.70;99.90
20416;DHT22;10367;52.202;5.996;2023-03-05T07:42:04;3.80;99.90
20416;DHT22;10367;52.202;5.996;2023-03-05T07:44:36;3.80;99.90
20416;DHT22;10367;52.202;5.996;2023-03-05T07:47:06;3.80;99.90
20416;DHT22;10367;52.202;5.996;2023-03-05T07:49:38;3.90;99.90
20416;DHT22;10367;52.202;5.996;2023-03-05T07:52:17;3.90;99.90
20416;DHT22;10367;52.202;5.996;2023-03-05T07:54:46;3.80;99.90
20416;DHT22;10367;52.202;5.996;2023-03-05T07:57:19;3.80;99.90
20416;DHT22;10367;52.202;5.996;2023-03-05T07:59:49;3.90;99.90
20416;DHT22;10367;52.202;5.996;2023-03-05T08:02:24;3.90;99.90
20416;DHT22;10367;52.202;5.996;2023-03-05T08:04:56;3.90;99.90
20416;DHT22;10367;52.202;5.996;2023-03-05T08:07:27;3.90;99.90
20416;DHT22;10367;52.202;5.996;2023-03-05T08:10:09;4.00;99.90
20416;DHT22;10367;52.202;5.996;2023-03-05T08:12:41;4.00;99.90
20416;DHT22;10367;52.202;5.996;2023-03-05T08:15:25;4.00;99.90
20416;DHT22;10367;52.202;5.996;2023-03-05T08:17:54;4.00;99.90
20416;DHT22;10367;52.202;5.996;2023-03-05T08:20:26;4.10;99.90
20416;DHT22;10367;52.202;5.996;2023-03-05T08:22:59;4.20;99.90
20416;DHT22;10367;52.202;5.996;2023-03-05T08:25:31;4.20;99.90
20416;DHT22;10367;52.202;5.996;2023-03-05T08:28:04;4.30;99.90
20416;DHT22;10367;52.202;5.996;2023-03-05T08:30:38;4.50;99.90
20416;DHT22;10367;52.202;5.996;2023-03-05T08:33:07;4.60;99.90
20416;DHT22;10367;52.202;5.996;2023-03-05T08:35:45;4.60;99.90
20416;DHT22;10367;52.202;5.996;2023-03-05T08:38:17;4.60;99.90
20416;DHT22;10367;52.202;5.996;2023-03-05T08:40:56;4.80;99.90
20416;DHT22;10367;52.202;5.996;2023-03-05T08:43:26;4.90;99.90
20416;DHT22;10367;52.202;5.996;2023-03-05T08:45:55;4.80;99.90
20416;DHT22;10367;52.202;5.996;2023-03-05T08:48:25;4.90;99.90
20416;DHT22;10367;52.202;5.996;2023-03-05T08:50:56;5.00;99.90
20416;DHT22;10367;52.202;5.996;2023-03-05T08:53:28;5.10;99.90
20416;DHT22;10367;52.202;5.996;2023-03-05T08:55:57;5.20;99.90
20416;DHT22;10367;52.202;5.996;2023-03-05T08:58:27;5.20;99.90
20416;DHT22;10367;52.202;5.996;2023-03-05T09:00:56;5.30;99.90
20416;DHT22;10367;52.202;5.996;2023-03-05T09:03:29;5.30;99.90
20416;DHT22;10367;52.202;5.996;2023-03-05T09:05:58;5.50;99.90
20416;DHT22;10367;52.202;5.996;2023-03-05T09:08:30;5.50;99.90
20416;DHT22;10367;52.202;5.996;2023-03-05T09:11:04;5.60;99.90
20416;DHT22;10367;52.202;5.996;2023-03-05T09:13:36;5.70;99.90
20416;DHT22;10367;52.202;5.996;2023-03-05T09:16:08;5.80;99.90
20416;DHT22;10367;52.202;5.996;2023-03-05T09:18:38;6.00;99.90
20416;DHT22;10367;52.202;5.996;2023-03-05T09:21:09;6.00;99.90
20416;DHT22;10367;52.202;5.996;2023-03-05T09:23:40;5.90;99.90
20416;DHT22;10367;52.202;5.996;2023-03-05T09:26:10;5.80;99.90
20416;DHT22;10367;52.202;5.996;2023-03-05T09:28:48;5.80;99.90
20416;DHT22;10367;52.202;5.996;2023-03-05T09:31:33;5.80;99.90
20416;DHT22;10367;52.202;5.996;2023-03-05T09:34:02;5.80;99.90
20416;DHT22;10367;52.202;5.996;2023-03-05T09:36:32;5.90;99.90
20416;DHT22;10367;52.202;5.996;2023-03-05T09:39:03;6.10;99.90
20416;DHT22;10367;52.202;5.996;2023-03-05T09:41:46;6.10;99.90
20416;DHT22;10367;52.202;5.996;2023-03-05T09:44:39;6.30;99.90
20416;DHT22;10367;52.202;5.996;2023-03-05T09:47:25;6.70;99.90
20416;DHT22;10367;52.202;5.996;2023-03-05T09:50:01;7.00;99.90
20416;DHT22;10367;52.202;5.996;2023-03-05T09:52:40;7.10;99.90
20416;DHT22;10367;52.202;5.996;2023-03-05T09:55:25;7.10;99.90
20416;DHT22;10367;52.202;5.996;2023-03-05T09:58:10;7.10;99.90
20416;DHT22;10367;52.202;5.996;2023-03-05T10:00:49;7.00;99.90
20416;DHT22;10367;52.202;5.996;2023-03-05T10:03:33;6.80;99.90
20416;DHT22;10367;52.202;5.996;2023-03-05T10:06:18;6.90;99.90
20416;DHT22;10367;52.202;5.996;2023-03-05T10:09:12;7.00;99.90
20416;DHT22;10367;52.202;5.996;2023-03-05T10:11:52;7.00;99.90
20416;DHT22;10367;52.202;5.996;2023-03-05T10:14:35;7.00;99.90
20416;DHT22;10367;52.202;5.996;2023-03-05T10:17:44;6.90;99.90
20416;DHT22;10367;52.202;5.996;2023-03-05T10:20:54;6.90;99.90
20416;DHT22;10367;52.202;5.996;2023-03-05T10:23:55;7.00;99.90
20416;DHT22;10367;52.202;5.996;2023-03-05T10:26:39;7.00;99.90
20416;DHT22;10367;52.202;5.996;2023-03-05T10:29:35;7.30;99.90
20416;DHT22;10367;52.202;5.996;2023-03-05T10:32:35;7.40;99.90
20416;DHT22;10367;52.202;5.996;2023-03-05T10:38:51;7.70;99.90
20416;DHT22;10367;52.202;5.996;2023-03-05T10:41:39;7.50;99.90
20416;DHT22;10367;52.202;5.996;2023-03-05T10:44:36;7.40;99.90
20416;DHT22;10367;52.202;5.996;2023-03-05T10:47:20;7.20;99.90
20416;DHT22;10367;52.202;5.996;2023-03-05T10:49:58;7.20;99.90
20416;DHT22;10367;52.202;5.996;2023-03-05T10:52:54;7.20;99.90
20416;DHT22;10367;52.202;5.996;2023-03-05T10:55:35;7.10;99.90
20416;DHT22;10367;52.202;5.996;2023-03-05T10:58:23;7.00;99.90
20416;DHT22;10367;52.202;5.996;2023-03-05T11:01:19;6.70;99.90
20416;DHT22;10367;52.202;5.996;2023-03-05T11:03:54;6.20;99.90
20416;DHT22;10367;52.202;5.996;2023-03-05T11:06:29;5.70;99.90
20416;DHT22;10367;52.202;5.996;2023-03-05T11:09:20;5.10;99.90
20416;DHT22;10367;52.202;5.996;2023-03-05T11:12:16;4.70;99.90
20416;DHT22;10367;52.202;5.996;2023-03-05T11:14:47;4.50;99.90
20416;DHT22;10367;52.202;5.996;2023-03-05T11:17:47;4.60;99.90
20416;DHT22;10367;52.202;5.996;2023-03-05T11:20:31;4.70;99.90
20416;DHT22;10367;52.202;5.996;2023-03-05T11:23:09;4.80;99.90
20416;DHT22;10367;52.202;5.996;2023-03-05T11:26:02;4.90;99.90
20416;DHT22;10367;52.202;5.996;2023-03-05T11:28:37;5.10;99.90
20416;DHT22;10367;52.202;5.996;2023-03-05T11:31:25;5.40;99.90
20416;DHT22;10367;52.202;5.996;2023-03-05T11:33:59;5.50;99.90
20416;DHT22;10367;52.202;5.996;2023-03-05T11:36:33;5.50;99.90
20416;DHT22;10367;52.202;5.996;2023-03-05T11:39:13;5.70;99.90
20416;DHT22;10367;52.202;5.996;2023-03-05T11:41:46;6.00;99.90
20416;DHT22;10367;52.202;5.996;2023-03-05T11:44:20;6.10;99.90
20416;DHT22;10367;52.202;5.996;2023-03-05T11:46:52;6.20;99.90
20416;DHT22;10367;52.202;5.996;2023-03-05T11:49:25;6.10;99.90
20416;DHT22;10367;52.202;5.996;2023-03-05T11:52:00;6.10;99.90
20416;DHT22;10367;52.202;5.996;2023-03-05T11:54:38;6.30;99.90
20416;DHT22;10367;52.202;5.996;2023-03-05T11:57:11;6.40;99.90
20416;DHT22;10367;52.202;5.996;2023-03-05T11:59:43;6.50;99.90
20416;DHT22;10367;52.202;5.996;2023-03-05T12:02:17;6.70;99.90
20416;DHT22;10367;52.202;5.996;2023-03-05T12:04:48;6.70;99.90
20416;DHT22;10367;52.202;5.996;2023-03-05T12:07:25;6.80;99.90
20416;DHT22;10367;52.202;5.996;2023-03-05T12:09:58;7.00;99.90
20416;DHT22;10367;52.202;5.996;2023-03-05T12:12:35;7.10;99.90
20416;DHT22;10367;52.202;5.996;2023-03-05T12:15:46;7.40;99.90
20416;DHT22;10367;52.202;5.996;2023-03-05T12:18:24;7.80;99.90
20416;DHT22;10367;52.202;5.996;2023-03-05T12:21:03;8.10;99.90
20416;DHT22;10367;52.202;5.996;2023-03-05T12:23:47;8.20;99.90
20416;DHT22;10367;52.202;5.996;2023-03-05T12:26:17;8.30;99.90
20416;DHT22;10367;52.202;5.996;2023-03-05T12:28:54;8.00;99.90
20416;DHT22;10367;52.202;5.996;2023-03-05T12:31:34;7.90;99.90
20416;DHT22;10367;52.202;5.996;2023-03-05T12:34:41;7.80;99.90
20416;DHT22;10367;52.202;5.996;2023-03-05T12:40:22;7.50;99.90
20416;DHT22;10367;52.202;5.996;2023-03-05T12:42:53;7.20;99.90
20416;DHT22;10367;52.202;5.996;2023-03-05T12:45:33;6.90;99.90
20416;DHT22;10367;52.202;5.996;2023-03-05T12:48:33;6.60;99.90
20416;DHT22;10367;52.202;5.996;2023-03-05T12:51:31;6.60;99.90
20416;DHT22;10367;52.202;5.996;2023-03-05T12:54:25;6.60;99.90
20416;DHT22;10367;52.202;5.996;2023-03-05T12:56:55;6.60;99.90
20416;DHT22;10367;52.202;5.996;2023-03-05T12:59:37;6.60;99.90
20416;DHT22;10367;52.202;5.996;2023-03-05T13:02:20;6.80;99.90
20416;DHT22;10367;52.202;5.996;2023-03-05T13:04:49;7.10;99.90
20416;DHT22;10367;52.202;5.996;2023-03-05T13:07:20;7.20;99.90
20416;DHT22;10367;52.202;5.996;2023-03-05T13:09:54;7.30;99.90
20416;DHT22;10367;52.202;5.996;2023-03-05T13:12:25;7.50;99.90
20416;DHT22;10367;52.202;5.996;2023-03-05T13:14:57;7.60;99.90
20416;DHT22;10367;52.202;5.996;2023-03-05T13:17:28;7.50;99.90
20416;DHT22;10367;52.202;5.996;2023-03-05T13:19:58;7.60;99.90
20416;DHT22;10367;52.202;5.996;2023-03-05T13:22:27;7.50;99.90
20416;DHT22;10367;52.202;5.996;2023-03-05T13:25:15;7.60;99.90
20416;DHT22;10367;52.202;5.996;2023-03-05T13:27:46;7.90;99.90
20416;DHT22;10367;52.202;5.996;2023-03-05T13:30:24;8.00;99.90
20416;DHT22;10367;52.202;5.996;2023-03-05T13:32:56;8.20;99.90
20416;DHT22;10367;52.202;5.996;2023-03-05T13:35:29;8.20;99.90
20416;DHT22;10367;52.202;5.996;2023-03-05T13:37:58;8.10;99.90
20416;DHT22;10367;52.202;5.996;2023-03-05T13:40:31;8.30;99.90
20416;DHT22;10367;52.202;5.996;2023-03-05T13:43:08;8.60;99.90
20416;DHT22;10367;52.202;5.996;2023-03-05T13:45:38;8.80;99.90
20416;DHT22;10367;52.202;5.996;2023-03-05T13:48:17;8.60;99.90
20416;DHT22;10367;52.202;5.996;2023-03-05T13:50:53;8.50;99.90
20416;DHT22;10367;52.202;5.996;2023-03-05T13:53:24;8.10;99.90
20416;DHT22;10367;52.202;5.996;2023-03-05T13:55:56;8.00;99.90
20416;DHT22;10367;52.202;5.996;2023-03-05T13:58:46;7.80;99.90
20416;DHT22;10367;52.202;5.996;2023-03-05T14:01:24;7.70;99.90
20416;DHT22;10367;52.202;5.996;2023-03-05T14:03:55;7.50;99.90
20416;DHT22;10367;52.202;5.996;2023-03-05T14:06:26;7.50;99.90
20416;DHT22;10367;52.202;5.996;2023-03-05T14:09:02;7.60;99.90
20416;DHT22;10367;52.202;5.996;2023-03-05T14:11:33;7.60;99.90
20416;DHT22;10367;52.202;5.996;2023-03-05T14:14:13;7.60;99.90
20416;DHT22;10367;52.202;5.996;2023-03-05T14:16:44;7.60;99.90
20416;DHT22;10367;52.202;5.996;2023-03-05T14:19:31;7.50;99.90
20416;DHT22;10367;52.202;5.996;2023-03-05T14:22:01;7.50;99.90
20416;DHT22;10367;52.202;5.996;2023-03-05T14:24:30;7.40;99.90
20416;DHT22;10367;52.202;5.996;2023-03-05T14:27:03;7.30;99.90
20416;DHT22;10367;52.202;5.996;2023-03-05T14:29:35;7.30;99.90
20416;DHT22;10367;52.202;5.996;2023-03-05T14:32:06;7.50;99.90
20416;DHT22;10367;52.202;5.996;2023-03-05T14:34:37;7.50;99.90
20416;DHT22;10367;52.202;5.996;2023-03-05T14:37:16;7.70;99.90
20416;DHT22;10367;52.202;5.996;2023-03-05T14:39:50;7.40;99.90
20416;DHT22;10367;52.202;5.996;2023-03-05T14:42:29;7.30;99.90
20416;DHT22;10367;52.202;5.996;2023-03-05T14:45:00;7.30;99.90
20416;DHT22;10367;52.202;5.996;2023-03-05T14:47:29;7.40;99.90
20416;DHT22;10367;52.202;5.996;2023-03-05T14:49:58;7.30;99.90
20416;DHT22;10367;52.202;5.996;2023-03-05T14:52:27;7.20;99.90
20416;DHT22;10367;52.202;5.996;2023-03-05T14:54:55;7.10;99.90
20416;DHT22;10367;52.202;5.996;2023-03-05T14:57:26;7.10;99.90
20416;DHT22;10367;52.202;5.996;2023-03-05T15:00:02;7.10;99.90
20416;DHT22;10367;52.202;5.996;2023-03-05T15:02:32;7.10;99.90
20416;DHT22;10367;52.202;5.996;2023-03-05T15:05:00;7.10;99.90
20416;DHT22;10367;52.202;5.996;2023-03-05T15:07:30;7.10;99.90
20416;DHT22;10367;52.202;5.996;2023-03-05T15:10:00;7.10;99.90
20416;DHT22;10367;52.202;5.996;2023-03-05T15:12:28;7.20;99.90
20416;DHT22;10367;52.202;5.996;2023-03-05T15:14:57;7.20;99.90
20416;DHT22;10367;52.202;5.996;2023-03-05T15:17:33;7.20;99.90
20416;DHT22;10367;52.202;5.996;2023-03-05T15:20:04;7.30;99.90
20416;DHT22;10367;52.202;5.996;2023-03-05T15:22:36;7.30;99.90
20416;DHT22;10367;52.202;5.996;2023-03-05T15:25:06;7.30;99.90
20416;DHT22;10367;52.202;5.996;2023-03-05T15:27:34;7.30;99.90
20416;DHT22;10367;52.202;5.996;2023-03-05T15:30:05;7.30;99.90
20416;DHT22;10367;52.202;5.996;2023-03-05T15:32:35;7.30;99.90
20416;DHT22;10367;52.202;5.996;2023-03-05T15:35:04;7.30;99.90
20416;DHT22;10367;52.202;5.996;2023-03-05T15:37:35;7.30;99.90
20416;DHT22;10367;52.202;5.996;2023-03-05T15:40:05;7.30;99.90
20416;DHT22;10367;52.202;5.996;2023-03-05T15:42:34;7.20;99.90
20416;DHT22;10367;52.202;5.996;2023-03-05T15:45:06;7.20;99.90
20416;DHT22;10367;52.202;5.996;2023-03-05T15:47:37;7.10;99.90
20416;DHT22;10367;52.202;5.996;2023-03-05T15:50:08;7.10;99.90
20416;DHT22;10367;52.202;5.996;2023-03-05T15:52:37;7.10;99.90
20416;DHT22;10367;52.202;5.996;2023-03-05T15:55:07;7.10;99.90
20416;DHT22;10367;52.202;5.996;2023-03-05T15:57:41;7.20;99.90
20416;DHT22;10367;52.202;5.996;2023-03-05T16:00:12;7.10;99.90
20416;DHT22;10367;52.202;5.996;2023-03-05T16:02:42;7.10;99.90
20416;DHT22;10367;52.202;5.996;2023-03-05T16:05:12;7.10;99.90
20416;DHT22;10367;52.202;5.996;2023-03-05T16:07:42;7.10;99.90
20416;DHT22;10367;52.202;5.996;2023-03-05T16:10:23;7.10;99.90
20416;DHT22;10367;52.202;5.996;2023-03-05T16:12:55;7.10;99.90
20416;DHT22;10367;52.202;5.996;2023-03-05T16:15:25;7.00;99.90
20416;DHT22;10367;52.202;5.996;2023-03-05T16:17:57;6.90;99.90
20416;DHT22;10367;52.202;5.996;2023-03-05T16:20:29;6.90;99.90
20416;DHT22;10367;52.202;5.996;2023-03-05T16:22:58;6.80;99.90
20416;DHT22;10367;52.202;5.996;2023-03-05T16:25:28;6.70;99.90
20416;DHT22;10367;52.202;5.996;2023-03-05T16:27:59;6.70;99.90
20416;DHT22;10367;52.202;5.996;2023-03-05T16:30:29;6.60;99.90
20416;DHT22;10367;52.202;5.996;2023-03-05T16:33:01;6.60;99.90
20416;DHT22;10367;52.202;5.996;2023-03-05T16:35:30;6.60;99.90
20416;DHT22;10367;52.202;5.996;2023-03-05T16:37:59;6.50;99.90
20416;DHT22;10367;52.202;5.996;2023-03-05T16:40:28;6.40;99.90
20416;DHT22;10367;52.202;5.996;2023-03-05T16:43:18;6.40;99.90
20416;DHT22;10367;52.202;5.996;2023-03-05T16:45:47;6.20;99.90
20416;DHT22;10367;52.202;5.996;2023-03-05T16:48:18;6.10;99.90